sensor_id;sensor_type;location;lat;lon;timestamp;pressure;altitude;pressure_sealevel;temperature;humidity
46944;BME280;32678;43.852;25.952;2023-03-14T00:03:08;101511.25;;;9.38;45.85
46944;BME280;32678;43.852;25.952;2023-03-14T00:08:11;101508.75;;;9.29;44.94
46944;BME280;32678;43.852;25.952;2023-03-14T00:13:09;101516.56;;;9.33;45.82
46944;BME280;32678;43.852;25.952;2023-03-14T00:18:06;101504.09;;;8.91;44.48
46944;BME280;32678;43.852;25.952;2023-03-14T00:23:03;101495.03;;;8.53;44.15
46944;BME280;32678;43.852;25.952;2023-03-14T00:28:02;101484.66;;;8.46;44.41
46944;BME280;32678;43.852;25.952;2023-03-14T00:32:59;101478.44;;;8.56;44.53
46944;BME280;32678;43.852;25.952;2023-03-14T00:37:59;101467.34;;;9.00;46.98
46944;BME280;32678;43.852;25.952;2023-03-14T00:42:58;101461.50;;;9.39;46.72
46944;BME280;32678;43.852;25.952;2023-03-14T00:48:06;101449.28;;;9.40;45.75
46944;BME280;32678;43.852;25.952;2023-03-14T00:53:05;101444.03;;;9.41;44.83
46944;BME280;32678;43.852;25.952;2023-03-14T00:58:08;101445.50;;;9.56;44.59
46944;BME280;32678;43.852;25.952;2023-03-14T01:03:07;101436.63;;;9.63;45.65
46944;BME280;32678;43.852;25.952;2023-03-14T01:08:05;101422.56;;;9.69;45.77
46944;BME280;32678;43.852;25.952;2023-03-14T01:13:06;101410.16;;;9.78;45.31
46944;BME280;32678;43.852;25.952;2023-03-14T01:18:05;101416.06;;;9.89;45.24
46944;BME280;32678;43.852;25.952;2023-03-14T01:23:10;101415.44;;;9.77;45.87
46944;BME280;32678;43.852;25.952;2023-03-14T01:28:09;101417.25;;;9.73;46.79
46944;BME280;32678;43.852;25.952;2023-03-14T01:33:11;101416.47;;;9.68;48.41
46944;BME280;32678;43.852;25.952;2023-03-14T01:38:15;101412.22;;;9.63;46.54
46944;BME280;32678;43.852;25.952;2023-03-14T01:43:17;101418.78;;;9.83;45.94
46944;BME280;32678;43.852;25.952;2023-03-14T01:48:17;101419.66;;;9.84;45.80
46944;BME280;32678;43.852;25.952;2023-03-14T01:53:14;101406.94;;;9.64;45.87
46944;BME280;32678;43.852;25.952;2023-03-14T01:58:16;101398.72;;;9.84;45.93
46944;BME280;32678;43.852;25.952;2023-03-14T02:03:15;101407.31;;;9.90;45.84
46944;BME280;32678;43.852;25.952;2023-03-14T02:08:15;101402.25;;;9.81;45.94
46944;BME280;32678;43.852;25.952;2023-03-14T02:13:21;101407.50;;;9.81;46.86
46944;BME280;32678;43.852;25.952;2023-03-14T02:18:47;101414.44;;;9.84;48.30
46944;BME280;32678;43.852;25.952;2023-03-14T02:24:06;101411.97;;;9.76;49.12
46944;BME280;32678;43.852;25.952;2023-03-14T02:29:12;101410.38;;;9.68;49.01
46944;BME280;32678;43.852;25.952;2023-03-14T02:34:13;101415.84;;;9.55;49.12
46944;BME280;32678;43.852;25.952;2023-03-14T02:39:11;101419.44;;;9.50;48.60
46944;BME280;32678;43.852;25.952;2023-03-14T02:44:14;101420.38;;;9.46;48.61
46944;BME280;32678;43.852;25.952;2023-03-14T02:49:12;101430.63;;;9.58;48.57
46944;BME280;32678;43.852;25.952;2023-03-14T02:54:10;101420.09;;;9.61;48.64
46944;BME280;32678;43.852;25.952;2023-03-14T02:59:12;101424.03;;;9.36;49.15
46944;BME280;32678;43.852;25.952;2023-03-14T03:04:33;101418.09;;;9.74;48.69
46944;BME280;32678;43.852;25.952;2023-03-14T03:09:32;101405.41;;;9.98;48.38
46944;BME280;32678;43.852;25.952;2023-03-14T03:14:29;101406.47;;;9.88;47.25
46944;BME280;32678;43.852;25.952;2023-03-14T03:19:30;101398.38;;;9.56;48.17
46944;BME280;32678;43.852;25.952;2023-03-14T03:24:29;101410.59;;;9.55;49.02
46944;BME280;32678;43.852;25.952;2023-03-14T03:29:26;101410.63;;;9.54;48.79
46944;BME280;32678;43.852;25.952;2023-03-14T03:34:24;101406.28;;;9.53;49.14
46944;BME280;32678;43.852;25.952;2023-03-14T03:39:25;101388.03;;;9.50;49.77
46944;BME280;32678;43.852;25.952;2023-03-14T03:44:23;101375.50;;;9.66;48.33
46944;BME280;32678;43.852;25.952;2023-03-14T03:49:23;101369.22;;;9.74;47.93
46944;BME280;32678;43.852;25.952;2023-03-14T03:54:20;101372.13;;;9.61;47.01
46944;BME280;32678;43.852;25.952;2023-03-14T03:59:19;101371.31;;;9.57;48.13
46944;BME280;32678;43.852;25.952;2023-03-14T04:04:17;101351.25;;;9.56;49.89
46944;BME280;32678;43.852;25.952;2023-03-14T04:09:19;101339.81;;;9.62;50.33
46944;BME280;32678;43.852;25.952;2023-03-14T04:14:37;101335.28;;;9.68;48.60
46944;BME280;32678;43.852;25.952;2023-03-14T04:19:44;101331.38;;;9.46;48.83
46944;BME280;32678;43.852;25.952;2023-03-14T04:24:43;101326.09;;;9.49;47.83
46944;BME280;32678;43.852;25.952;2023-03-14T04:29:40;101298.44;;;9.34;48.48
46944;BME280;32678;43.852;25.952;2023-03-14T04:34:37;101312.75;;;9.18;51.25
46944;BME280;32678;43.852;25.952;2023-03-14T04:39:37;101312.41;;;8.86;46.84
46944;BME280;32678;43.852;25.952;2023-03-14T04:44:57;101292.50;;;8.79;50.13
46944;BME280;32678;43.852;25.952;2023-03-14T04:49:57;101306.06;;;9.00;50.92
46944;BME280;32678;43.852;25.952;2023-03-14T04:54:55;101319.38;;;8.87;49.04
46944;BME280;32678;43.852;25.952;2023-03-14T04:59:54;101322.25;;;8.72;48.80
46944;BME280;32678;43.852;25.952;2023-03-14T05:05:12;101343.59;;;8.44;47.56
46944;BME280;32678;43.852;25.952;2023-03-14T05:10:22;101346.41;;;8.29;47.16
46944;BME280;32678;43.852;25.952;2023-03-14T05:15:37;101358.34;;;8.48;45.94
46944;BME280;32678;43.852;25.952;2023-03-14T05:20:53;101359.72;;;8.70;46.17
46944;BME280;32678;43.852;25.952;2023-03-14T05:25:58;101349.09;;;8.83;45.68
46944;BME280;32678;43.852;25.952;2023-03-14T05:31:15;101336.75;;;8.91;45.38
46944;BME280;32678;43.852;25.952;2023-03-14T05:36:23;101341.78;;;9.03;44.84
46944;BME280;32678;43.852;25.952;2023-03-14T05:41:44;101328.72;;;9.01;44.40
46944;BME280;32678;43.852;25.952;2023-03-14T05:47:10;101331.41;;;8.97;44.13
46944;BME280;32678;43.852;25.952;2023-03-14T05:52:20;101307.91;;;8.95;44.53
46944;BME280;32678;43.852;25.952;2023-03-14T05:57:45;101318.19;;;9.04;44.16
46944;BME280;32678;43.852;25.952;2023-03-14T06:03:04;101321.50;;;9.14;43.27
46944;BME280;32678;43.852;25.952;2023-03-14T06:08:06;101315.63;;;9.01;45.52
46944;BME280;32678;43.852;25.952;2023-03-14T06:13:09;101311.91;;;9.14;47.65
46944;BME280;32678;43.852;25.952;2023-03-14T06:18:09;101302.50;;;9.04;48.69
46944;BME280;32678;43.852;25.952;2023-03-14T06:23:06;101322.34;;;9.16;49.11
46944;BME280;32678;43.852;25.952;2023-03-14T06:28:06;101300.28;;;9.31;48.25
46944;BME280;32678;43.852;25.952;2023-03-14T06:33:19;101312.88;;;9.55;47.80
46944;BME280;32678;43.852;25.952;2023-03-14T06:38:20;101320.03;;;9.47;47.76
46944;BME280;32678;43.852;25.952;2023-03-14T06:43:22;101325.84;;;9.63;46.94
46944;BME280;32678;43.852;25.952;2023-03-14T06:48:24;101333.72;;;9.61;47.08
46944;BME280;32678;43.852;25.952;2023-03-14T06:53:27;101332.22;;;9.48;47.39
46944;BME280;32678;43.852;25.952;2023-03-14T06:58:31;101324.13;;;9.60;47.58
46944;BME280;32678;43.852;25.952;2023-03-14T07:03:33;101310.06;;;9.66;47.37
46944;BME280;32678;43.852;25.952;2023-03-14T07:08:34;101299.97;;;9.87;45.88
46944;BME280;32678;43.852;25.952;2023-03-14T07:13:31;101295.38;;;9.98;45.64
46944;BME280;32678;43.852;25.952;2023-03-14T07:18:34;101289.16;;;10.02;44.29
46944;BME280;32678;43.852;25.952;2023-03-14T07:23:39;101282.81;;;10.13;44.37
46944;BME280;32678;43.852;25.952;2023-03-14T07:28:41;101279.66;;;9.98;43.26
46944;BME280;32678;43.852;25.952;2023-03-14T07:44:29;101283.03;;;10.04;42.98
46944;BME280;32678;43.852;25.952;2023-03-14T07:49:30;101276.28;;;9.93;42.40
46944;BME280;32678;43.852;25.952;2023-03-14T07:54:36;101271.78;;;9.58;42.70
46944;BME280;32678;43.852;25.952;2023-03-14T07:59:47;101271.81;;;9.97;42.54
46944;BME280;32678;43.852;25.952;2023-03-14T08:04:45;101268.84;;;10.14;41.82
46944;BME280;32678;43.852;25.952;2023-03-14T08:09:43;101257.47;;;10.15;41.92
46944;BME280;32678;43.852;25.952;2023-03-14T08:14:43;101262.31;;;10.33;41.67
46944;BME280;32678;43.852;25.952;2023-03-14T08:19:54;101233.72;;;10.22;42.38
46944;BME280;32678;43.852;25.952;2023-03-14T08:24:51;101246.47;;;10.71;41.50
46944;BME280;32678;43.852;25.952;2023-03-14T08:29:59;101243.28;;;10.94;41.34
46944;BME280;32678;43.852;25.952;2023-03-14T08:35:14;101238.03;;;10.60;41.28
46944;BME280;32678;43.852;25.952;2023-03-14T08:40:13;101240.94;;;10.50;40.84
46944;BME280;32678;43.852;25.952;2023-03-14T08:45:42;101228.22;;;11.01;40.72
46944;BME280;32678;43.852;25.952;2023-03-14T08:50:48;101215.78;;;11.07;40.19
46944;BME280;32678;43.852;25.952;2023-03-14T08:55:54;101202.84;;;11.32;39.73
46944;BME280;32678;43.852;25.952;2023-03-14T09:00:52;101193.63;;;11.48;39.42
46944;BME280;32678;43.852;25.952;2023-03-14T09:06:04;101186.94;;;11.66;39.15
46944;BME280;32678;43.852;25.952;2023-03-14T09:11:06;101154.75;;;11.30;38.36
46944;BME280;32678;43.852;25.952;2023-03-14T09:16:19;101153.94;;;11.57;38.34
46944;BME280;32678;43.852;25.952;2023-03-14T09:21:31;101148.72;;;11.85;37.74
46944;BME280;32678;43.852;25.952;2023-03-14T09:26:30;101136.84;;;11.72;37.97
46944;BME280;32678;43.852;25.952;2023-03-14T09:31:41;101130.09;;;11.63;38.08
46944;BME280;32678;43.852;25.952;2023-03-14T09:37:00;101123.47;;;11.52;37.73
46944;BME280;32678;43.852;25.952;2023-03-14T09:42:11;101119.41;;;11.69;38.24
46944;BME280;32678;43.852;25.952;2023-03-14T09:47:14;101101.28;;;11.90;37.70
46944;BME280;32678;43.852;25.952;2023-03-14T09:57:42;101091.53;;;12.18;37.76
46944;BME280;32678;43.852;25.952;2023-03-14T10:02:49;101074.81;;;12.21;36.81
46944;BME280;32678;43.852;25.952;2023-03-14T10:07:52;101066.00;;;12.46;36.28
46944;BME280;32678;43.852;25.952;2023-03-14T10:13:05;101055.75;;;12.64;36.29
46944;BME280;32678;43.852;25.952;2023-03-14T10:18:10;101038.56;;;13.00;35.42
46944;BME280;32678;43.852;25.952;2023-03-14T10:23:36;101040.78;;;13.56;34.97
46944;BME280;32678;43.852;25.952;2023-03-14T10:28:39;101028.94;;;13.66;34.59
46944;BME280;32678;43.852;25.952;2023-03-14T10:33:57;101023.56;;;13.89;33.90
46944;BME280;32678;43.852;25.952;2023-03-14T10:39:15;101006.84;;;14.10;33.82
46944;BME280;32678;43.852;25.952;2023-03-14T10:44:29;100986.84;;;14.25;33.19
46944;BME280;32678;43.852;25.952;2023-03-14T10:49:35;100984.13;;;14.47;33.00
46944;BME280;32678;43.852;25.952;2023-03-14T10:54:57;100961.59;;;14.40;32.06
46944;BME280;32678;43.852;25.952;2023-03-14T11:00:05;100946.47;;;14.62;32.25
46944;BME280;32678;43.852;25.952;2023-03-14T11:05:18;100937.66;;;14.63;31.71
46944;BME280;32678;43.852;25.952;2023-03-14T11:10:44;100921.09;;;14.78;32.77
46944;BME280;32678;43.852;25.952;2023-03-14T11:15:56;100908.88;;;14.94;32.98
46944;BME280;32678;43.852;25.952;2023-03-14T11:21:29;100883.97;;;15.00;30.59
46944;BME280;32678;43.852;25.952;2023-03-14T11:26:33;100868.75;;;15.05;30.40
46944;BME280;32678;43.852;25.952;2023-03-14T11:31:35;100861.28;;;14.60;30.14
46944;BME280;32678;43.852;25.952;2023-03-14T11:36:51;100845.63;;;14.74;30.08
46944;BME280;32678;43.852;25.952;2023-03-14T11:41:55;100826.22;;;14.75;29.99
46944;BME280;32678;43.852;25.952;2023-03-14T11:47:05;100803.75;;;14.85;28.99
46944;BME280;32678;43.852;25.952;2023-03-14T11:52:12;100793.19;;;14.85;27.36
46944;BME280;32678;43.852;25.952;2023-03-14T11:57:16;100764.84;;;14.89;27.28
46944;BME280;32678;43.852;25.952;2023-03-14T12:02:25;100764.91;;;15.04;27.77
46944;BME280;32678;43.852;25.952;2023-03-14T12:07:29;100755.25;;;15.21;26.55
46944;BME280;32678;43.852;25.952;2023-03-14T12:12:33;100748.94;;;15.57;26.30
46944;BME280;32678;43.852;25.952;2023-03-14T12:17:43;100734.72;;;15.76;26.22
46944;BME280;32678;43.852;25.952;2023-03-14T12:22:52;100727.13;;;15.85;26.74
46944;BME280;32678;43.852;25.952;2023-03-14T12:33:18;100708.97;;;15.95;25.65
46944;BME280;32678;43.852;25.952;2023-03-14T12:38:29;100706.31;;;15.79;22.30
46944;BME280;32678;43.852;25.952;2023-03-14T12:43:34;100699.13;;;16.13;23.63
46944;BME280;32678;43.852;25.952;2023-03-14T12:48:45;100682.88;;;16.34;24.20
46944;BME280;32678;43.852;25.952;2023-03-14T12:59:28;100660.50;;;17.00;21.30
46944;BME280;32678;43.852;25.952;2023-03-14T13:04:34;100649.31;;;17.09;20.56
46944;BME280;32678;43.852;25.952;2023-03-14T13:09:53;100636.59;;;17.56;19.72
46944;BME280;32678;43.852;25.952;2023-03-14T13:15:01;100630.00;;;17.21;19.34
46944;BME280;32678;43.852;25.952;2023-03-14T13:20:12;100617.75;;;17.75;18.80
46944;BME280;32678;43.852;25.952;2023-03-14T13:25:11;100609.53;;;17.51;19.60
46944;BME280;32678;43.852;25.952;2023-03-14T13:30:16;100608.13;;;17.31;19.49
46944;BME280;32678;43.852;25.952;2023-03-14T13:40:46;100586.38;;;17.82;19.43
46944;BME280;32678;43.852;25.952;2023-03-14T13:45:51;100567.97;;;17.93;19.16
46944;BME280;32678;43.852;25.952;2023-03-14T13:50:59;100562.16;;;17.73;19.60
46944;BME280;32678;43.852;25.952;2023-03-14T13:56:14;100558.41;;;17.63;19.73
46944;BME280;32678;43.852;25.952;2023-03-14T14:01:23;100539.38;;;17.57;19.89
46944;BME280;32678;43.852;25.952;2023-03-14T14:12:30;100526.84;;;17.73;19.72
46944;BME280;32678;43.852;25.952;2023-03-14T14:17:34;100496.94;;;17.57;19.79
46944;BME280;32678;43.852;25.952;2023-03-14T14:22:35;100499.56;;;17.71;19.12
46944;BME280;32678;43.852;25.952;2023-03-14T14:27:42;100500.19;;;17.62;19.77
46944;BME280;32678;43.852;25.952;2023-03-14T14:38:16;100492.44;;;17.45;19.41
46944;BME280;32678;43.852;25.952;2023-03-14T14:43:18;100480.47;;;17.39;19.73
46944;BME280;32678;43.852;25.952;2023-03-14T14:48:17;100478.56;;;17.68;18.98
46944;BME280;32678;43.852;25.952;2023-03-14T14:53:21;100469.91;;;17.91;18.74
46944;BME280;32678;43.852;25.952;2023-03-14T14:58:34;100458.22;;;17.68;19.27
46944;BME280;32678;43.852;25.952;2023-03-14T15:09:26;100452.47;;;17.62;19.15
46944;BME280;32678;43.852;25.952;2023-03-14T15:14:49;100431.75;;;17.54;18.82
46944;BME280;32678;43.852;25.952;2023-03-14T15:19:49;100415.47;;;17.73;18.41
46944;BME280;32678;43.852;25.952;2023-03-14T15:25:00;100431.91;;;17.39;19.25
46944;BME280;32678;43.852;25.952;2023-03-14T15:30:47;100431.84;;;17.26;19.56
46944;BME280;32678;43.852;25.952;2023-03-14T15:35:50;100423.47;;;17.19;19.81
46944;BME280;32678;43.852;25.952;2023-03-14T15:40:58;100429.63;;;17.20;19.81
46944;BME280;32678;43.852;25.952;2023-03-14T15:46:02;100406.97;;;17.02;20.27
46944;BME280;32678;43.852;25.952;2023-03-14T15:51:06;100417.06;;;17.09;20.18
46944;BME280;32678;43.852;25.952;2023-03-14T15:56:10;100404.19;;;16.91;20.15
46944;BME280;32678;43.852;25.952;2023-03-14T16:01:08;100408.94;;;16.85;20.33
46944;BME280;32678;43.852;25.952;2023-03-14T16:06:11;100406.56;;;16.81;20.54
46944;BME280;32678;43.852;25.952;2023-03-14T16:11:12;100409.56;;;16.89;20.07
46944;BME280;32678;43.852;25.952;2023-03-14T16:16:18;100402.56;;;16.61;20.49
46944;BME280;32678;43.852;25.952;2023-03-14T16:21:34;100395.16;;;16.38;20.43
46944;BME280;32678;43.852;25.952;2023-03-14T16:26:35;100400.66;;;16.35;20.28
46944;BME280;32678;43.852;25.952;2023-03-14T16:36:59;100399.72;;;16.22;20.38
46944;BME280;32678;43.852;25.952;2023-03-14T16:42:07;100400.81;;;16.03;20.34
46944;BME280;32678;43.852;25.952;2023-03-14T16:47:06;100401.22;;;15.97;20.55
46944;BME280;32678;43.852;25.952;2023-03-14T16:52:09;100394.94;;;15.84;20.86
46944;BME280;32678;43.852;25.952;2023-03-14T16:57:07;100396.09;;;15.80;20.67
46944;BME280;32678;43.852;25.952;2023-03-14T17:02:07;100384.34;;;15.70;21.16
46944;BME280;32678;43.852;25.952;2023-03-14T17:07:08;100390.69;;;15.68;21.16
46944;BME280;32678;43.852;25.952;2023-03-14T17:12:08;100375.13;;;15.47;21.22
46944;BME280;32678;43.852;25.952;2023-03-14T17:17:09;100374.75;;;15.39;21.54
46944;BME280;32678;43.852;25.952;2023-03-14T17:22:09;100365.00;;;15.40;21.69
46944;BME280;32678;43.852;25.952;2023-03-14T17:27:20;100368.47;;;15.26;22.04
46944;BME280;32678;43.852;25.952;2023-03-14T17:32:18;100364.38;;;15.21;22.17
46944;BME280;32678;43.852;25.952;2023-03-14T17:37:21;100359.38;;;15.16;22.41
46944;BME280;32678;43.852;25.952;2023-03-14T17:42:26;100357.41;;;14.90;22.81
46944;BME280;32678;43.852;25.952;2023-03-14T17:47:23;100352.72;;;14.79;23.18
46944;BME280;32678;43.852;25.952;2023-03-14T17:52:23;100345.47;;;14.67;23.47
46944;BME280;32678;43.852;25.952;2023-03-14T17:57:20;100347.69;;;14.59;23.67
46944;BME280;32678;43.852;25.952;2023-03-14T18:02:17;100336.19;;;14.28;24.19
46944;BME280;32678;43.852;25.952;2023-03-14T18:07:18;100341.78;;;14.07;24.79
46944;BME280;32678;43.852;25.952;2023-03-14T18:12:17;100334.59;;;13.93;25.26
46944;BME280;32678;43.852;25.952;2023-03-14T18:17:14;100325.75;;;13.61;25.88
46944;BME280;32678;43.852;25.952;2023-03-14T18:22:11;100322.75;;;13.52;25.93
46944;BME280;32678;43.852;25.952;2023-03-14T18:27:09;100324.63;;;13.15;26.57
46944;BME280;32678;43.852;25.952;2023-03-14T18:32:09;100336.72;;;13.00;26.80
46944;BME280;32678;43.852;25.952;2023-03-14T18:37:10;100313.22;;;13.15;26.03
46944;BME280;32678;43.852;25.952;2023-03-14T18:42:10;100330.06;;;12.93;26.29
46944;BME280;32678;43.852;25.952;2023-03-14T18:47:10;100316.13;;;12.91;26.00
46944;BME280;32678;43.852;25.952;2023-03-14T18:52:07;100317.59;;;12.80;25.45
46944;BME280;32678;43.852;25.952;2023-03-14T18:57:06;100320.53;;;12.91;25.10
46944;BME280;32678;43.852;25.952;2023-03-14T19:02:03;100311.38;;;12.81;24.87
46944;BME280;32678;43.852;25.952;2023-03-14T19:07:01;100324.25;;;12.87;24.68
46944;BME280;32678;43.852;25.952;2023-03-14T19:12:00;100307.78;;;12.83;25.03
46944;BME280;32678;43.852;25.952;2023-03-14T19:16:57;100307.84;;;12.82;25.14
46944;BME280;32678;43.852;25.952;2023-03-14T19:21:57;100299.56;;;12.72;25.62
46944;BME280;32678;43.852;25.952;2023-03-14T19:26:59;100291.72;;;12.53;26.44
46944;BME280;32678;43.852;25.952;2023-03-14T19:31:59;100285.53;;;12.54;27.04
46944;BME280;32678;43.852;25.952;2023-03-14T19:37:04;100271.22;;;12.24;27.58
46944;BME280;32678;43.852;25.952;2023-03-14T19:42:07;100297.13;;;12.13;28.12
46944;BME280;32678;43.852;25.952;2023-03-14T19:47:06;100297.00;;;12.35;28.21
46944;BME280;32678;43.852;25.952;2023-03-14T19:52:03;100304.31;;;12.28;28.45
46944;BME280;32678;43.852;25.952;2023-03-14T19:57:01;100304.84;;;12.53;28.02
46944;BME280;32678;43.852;25.952;2023-03-14T20:02:01;100304.06;;;12.87;27.82
46944;BME280;32678;43.852;25.952;2023-03-14T20:06:58;100299.97;;;12.99;28.88
46944;BME280;32678;43.852;25.952;2023-03-14T20:11:55;100302.22;;;12.89;29.00
46944;BME280;32678;43.852;25.952;2023-03-14T20:17:01;100302.38;;;13.03;29.14
46944;BME280;32678;43.852;25.952;2023-03-14T20:21:58;100304.78;;;13.08;29.39
46944;BME280;32678;43.852;25.952;2023-03-14T20:27:01;100318.78;;;12.55;31.39
46944;BME280;32678;43.852;25.952;2023-03-14T20:31:59;100321.84;;;12.82;31.43
46944;BME280;32678;43.852;25.952;2023-03-14T20:37:01;100316.13;;;12.74;31.74
46944;BME280;32678;43.852;25.952;2023-03-14T20:42:03;100316.00;;;12.94;31.53
46944;BME280;32678;43.852;25.952;2023-03-14T20:47:00;100308.06;;;13.13;31.51
46944;BME280;32678;43.852;25.952;2023-03-14T20:51:58;100300.28;;;12.93;31.78
46944;BME280;32678;43.852;25.952;2023-03-14T20:56:56;100299.75;;;12.32;32.64
46944;BME280;32678;43.852;25.952;2023-03-14T21:01:53;100289.63;;;11.87;33.87
46944;BME280;32678;43.852;25.952;2023-03-14T21:07:17;100280.50;;;11.55;34.70
46944;BME280;32678;43.852;25.952;2023-03-14T21:12:15;100283.03;;;11.58;34.71
46944;BME280;32678;43.852;25.952;2023-03-14T21:17:13;100288.94;;;11.43;34.88
46944;BME280;32678;43.852;25.952;2023-03-14T21:22:12;100286.63;;;11.55;34.85
46944;BME280;32678;43.852;25.952;2023-03-14T21:27:15;100274.97;;;11.42;34.46
46944;BME280;32678;43.852;25.952;2023-03-14T21:32:15;100261.81;;;11.23;35.10
46944;BME280;32678;43.852;25.952;2023-03-14T21:37:12;100246.56;;;10.91;35.93
46944;BME280;32678;43.852;25.952;2023-03-14T21:42:10;100244.66;;;10.95;35.75
46944;BME280;32678;43.852;25.952;2023-03-14T21:47:09;100240.41;;;10.92;35.84
46944;BME280;32678;43.852;25.952;2023-03-14T21:52:08;100244.22;;;11.05;35.83
46944;BME280;32678;43.852;25.952;2023-03-14T21:57:05;100226.09;;;11.19;35.96
46944;BME280;32678;43.852;25.952;2023-03-14T22:02:04;100216.94;;;11.48;35.29
46944;BME280;32678;43.852;25.952;2023-03-14T22:07:02;100213.38;;;11.68;34.71
46944;BME280;32678;43.852;25.952;2023-03-14T22:12:00;100201.06;;;11.12;35.67
46944;BME280;32678;43.852;25.952;2023-03-14T22:16:57;100211.66;;;11.09;35.93
46944;BME280;32678;43.852;25.952;2023-03-14T22:21:57;100215.31;;;11.46;35.44
46944;BME280;32678;43.852;25.952;2023-03-14T22:26:58;100206.50;;;11.28;35.59
46944;BME280;32678;43.852;25.952;2023-03-14T22:31:58;100184.84;;;11.23;35.66
46944;BME280;32678;43.852;25.952;2023-03-14T22:36:57;100207.53;;;11.63;35.13
46944;BME280;32678;43.852;25.952;2023-03-14T22:41:59;100203.63;;;11.71;35.07
46944;BME280;32678;43.852;25.952;2023-03-14T22:46:56;100200.31;;;11.87;34.71
46944;BME280;32678;43.852;25.952;2023-03-14T22:51:53;100199.97;;;11.55;35.12
46944;BME280;32678;43.852;25.952;2023-03-14T22:56:50;100189.41;;;11.38;35.39
46944;BME280;32678;43.852;25.952;2023-03-14T23:01:47;100192.38;;;11.68;35.25
46944;BME280;32678;43.852;25.952;2023-03-14T23:06:47;100196.97;;;11.83;34.91
46944;BME280;32678;43.852;25.952;2023-03-14T23:11:48;100191.13;;;11.58;35.19
46944;BME280;32678;43.852;25.952;2023-03-14T23:16:47;100209.28;;;11.62;35.44
46944;BME280;32678;43.852;25.952;2023-03-14T23:21:44;100198.50;;;11.68;35.29
46944;BME280;32678;43.852;25.952;2023-03-14T23:26:41;100193.19;;;11.51;35.29
46944;BME280;32678;43.852;25.952;2023-03-14T23:31:42;100194.53;;;11.60;35.20
46944;BME280;32678;43.852;25.952;2023-03-14T23:36:39;100185.56;;;11.64;35.09
46944;BME280;32678;43.852;25.952;2023-03-14T23:41:36;100166.44;;;11.62;35.07
46944;BME280;32678;43.852;25.952;2023-03-14T23:46:33;100165.50;;;11.63;35.06
46944;BME280;32678;43.852;25.952;2023-03-14T23:51:30;100145.59;;;11.78;35.24
46944;BME280;32678;43.852;25.952;2023-03-14T23:56:29;100158.41;;;11.46;35.96
